createdAt,value
2023-01-19T00:00:46.725Z,20.900
2023-01-19T00:01:46.469Z,21.300
2023-01-19T00:02:46.296Z,21.300
2023-01-19T00:03:46.176Z,20.600
2023-01-19T00:04:45.917Z,19.900
2023-01-19T00:05:46.681Z,21.500
2023-01-19T00:06:47.023Z,21.500
2023-01-19T00:07:46.688Z,22.100
2023-01-19T00:08:46.416Z,20.400
2023-01-19T00:09:46.128Z,22.300
2023-01-19T00:10:46.963Z,21.000
2023-01-19T00:11:46.756Z,22.600
2023-01-19T00:12:46.387Z,22.100
2023-01-19T00:13:46.078Z,21.300
2023-01-19T00:14:46.812Z,22.000
2023-01-19T00:15:46.431Z,21.600
2023-01-19T00:16:46.168Z,22.200
2023-01-19T00:17:46.796Z,22.200
2023-01-19T00:18:46.503Z,21.500
2023-01-19T00:19:46.123Z,21.300
2023-01-19T00:20:46.787Z,21.400
2023-01-19T00:21:46.455Z,20.900
2023-01-19T00:22:46.059Z,21.200
2023-01-19T00:23:46.791Z,20.600
2023-01-19T00:24:47.455Z,21.600
2023-01-19T00:25:46.193Z,20.600
2023-01-19T00:26:45.857Z,21.400
2023-01-19T00:27:46.476Z,21.400
2023-01-19T00:28:46.128Z,20.900
2023-01-19T00:29:47.298Z,20.800
2023-01-19T00:30:46.480Z,20.600
2023-01-19T00:31:46.417Z,21.500
2023-01-19T00:32:46.127Z,20.800
2023-01-19T00:33:46.788Z,21.600
2023-01-19T00:34:46.450Z,23.000
2023-01-19T00:35:46.654Z,22.300
2023-01-19T00:36:46.334Z,22.600
2023-01-19T00:37:45.969Z,22.300
2023-01-19T00:38:46.725Z,22.300
2023-01-19T00:39:46.385Z,23.200
2023-01-19T00:40:46.162Z,23.300
2023-01-19T00:41:46.878Z,22.500
2023-01-19T00:42:46.643Z,23.800
2023-01-19T00:43:46.400Z,22.800
2023-01-19T00:44:46.018Z,21.300
2023-01-19T00:45:47.002Z,21.300
2023-01-19T00:46:47.026Z,22.700
2023-01-19T00:47:46.679Z,21.200
2023-01-19T00:48:46.378Z,22.000
2023-01-19T00:49:45.987Z,21.400
2023-01-19T00:50:46.865Z,21.900
2023-01-19T00:51:46.574Z,22.400
2023-01-19T00:52:46.235Z,20.800
2023-01-19T00:53:45.940Z,21.900
2023-01-19T00:54:46.667Z,22.200
2023-01-19T00:56:46.191Z,22.100
2023-01-19T00:57:45.911Z,21.400
2023-01-19T00:58:46.634Z,20.600
2023-01-19T00:59:46.319Z,21.600
2023-01-19T01:00:46.090Z,20.800
2023-01-19T01:01:56.754Z,21.300
2023-01-19T01:03:47.071Z,21.700
2023-01-19T01:04:47.755Z,20.900
2023-01-19T01:05:47.589Z,21.200
2023-01-19T01:06:47.303Z,20.400
2023-01-19T01:07:46.986Z,20.500
2023-01-19T01:08:47.666Z,21.200
2023-01-19T01:09:47.437Z,21.700
2023-01-19T01:10:47.096Z,21.500
2023-01-19T01:11:47.686Z,21.600
2023-01-19T01:12:53.584Z,21.900
2023-01-19T01:13:52.769Z,20.200
2023-01-19T01:14:47.507Z,21.900
2023-01-19T01:15:47.250Z,21.400
2023-01-19T01:16:46.994Z,21.500
2023-01-19T01:17:47.764Z,21.600
2023-01-19T01:18:47.471Z,21.500
2023-01-19T01:19:47.158Z,22.300
2023-01-19T01:20:47.771Z,22.600
2023-01-19T01:21:47.462Z,23.200
2023-01-19T01:22:47.169Z,23.100
2023-01-19T01:23:46.910Z,22.900
2023-01-19T01:24:47.723Z,22.900
2023-01-19T01:25:47.456Z,22.800
2023-01-19T01:26:47.203Z,22.200
2023-01-19T01:27:46.948Z,22.500
2023-01-19T01:28:47.668Z,23.100
2023-01-19T01:29:47.411Z,22.700
2023-01-19T01:30:47.062Z,23.000
2023-01-19T01:31:47.863Z,23.200
2023-01-19T01:32:47.608Z,21.600
2023-01-19T01:33:56.132Z,22.500
2023-01-19T01:34:47.784Z,22.000
2023-01-19T01:35:47.752Z,23.200
2023-01-19T01:36:47.467Z,22.700
2023-01-19T01:37:47.160Z,23.100
2023-01-19T01:38:47.826Z,23.500
2023-01-19T01:39:47.562Z,23.100
2023-01-19T01:40:47.259Z,23.800
2023-01-19T01:41:47.159Z,22.700
2023-01-19T01:42:47.553Z,22.100
2023-01-19T01:43:47.289Z,21.500
2023-01-19T01:44:47.134Z,22.400
2023-01-19T01:45:47.999Z,22.900
2023-01-19T01:46:47.650Z,23.900
2023-01-19T01:47:47.253Z,23.500
2023-01-19T01:48:46.884Z,24.000
2023-01-19T01:49:47.611Z,24.500
2023-01-19T01:50:47.287Z,24.500
2023-01-19T01:51:48.314Z,24.400
2023-01-19T01:53:03.860Z,23.700
2023-01-19T01:54:51.521Z,24.200
2023-01-19T01:55:51.253Z,23.300
2023-01-19T01:56:50.972Z,24.000
2023-01-19T01:57:51.652Z,24.600
2023-01-19T01:59:51.157Z,24.200
2023-01-19T02:00:51.927Z,23.100
2023-01-19T02:01:51.249Z,24.100
2023-01-19T02:02:51.374Z,24.700
2023-01-19T02:03:51.537Z,24.600
2023-01-19T02:04:51.204Z,25.400
2023-01-19T02:05:51.875Z,24.200
2023-01-19T02:06:51.587Z,24.200
2023-01-19T02:07:51.275Z,24.600
2023-01-19T02:08:50.946Z,24.000
2023-01-19T02:09:51.663Z,23.700
2023-01-19T02:10:51.365Z,23.700
2023-01-19T02:11:51.071Z,23.400
2023-01-19T02:12:51.659Z,24.000
2023-01-19T02:13:51.301Z,23.800
2023-01-19T02:14:51.050Z,23.300
2023-01-19T02:15:51.748Z,22.200
2023-01-19T02:16:51.694Z,23.500
2023-01-19T02:17:51.433Z,22.900
2023-01-19T02:18:51.152Z,22.200
2023-01-19T02:19:50.895Z,22.500
2023-01-19T02:20:51.523Z,22.700
2023-01-19T02:21:51.243Z,22.600
2023-01-19T02:22:50.984Z,22.700
2023-01-19T02:23:51.663Z,20.900
2023-01-19T02:24:51.344Z,22.100
2023-01-19T02:25:51.043Z,21.500
2023-01-19T02:26:52.044Z,20.300
2023-01-19T02:27:51.735Z,20.400
2023-01-19T02:28:51.392Z,20.600
2023-01-19T02:29:51.080Z,22.000
2023-01-19T02:30:51.896Z,21.100
2023-01-19T02:31:51.711Z,20.100
2023-01-19T02:32:51.354Z,21.500
2023-01-19T02:33:50.992Z,21.600
2023-01-19T02:35:51.606Z,21.800
2023-01-19T02:36:51.368Z,22.000
2023-01-19T02:37:51.087Z,22.400
2023-01-19T02:38:51.719Z,20.900
2023-01-19T02:39:51.374Z,22.000
2023-01-19T02:40:51.073Z,21.600
2023-01-19T02:41:50.835Z,20.700
2023-01-19T02:43:51.567Z,20.000
2023-01-19T02:44:51.442Z,21.600
2023-01-19T02:45:51.183Z,22.100
2023-01-19T02:46:50.998Z,22.700
2023-01-19T02:48:51.403Z,21.700
2023-01-19T02:49:51.120Z,19.700
2023-01-19T02:50:51.788Z,20.800
2023-01-19T02:51:51.803Z,19.700
2023-01-19T02:52:51.699Z,20.700
2023-01-19T02:53:51.397Z,20.700
2023-01-19T02:54:51.113Z,19.800
2023-01-19T02:55:51.772Z,21.100
2023-01-19T02:56:51.665Z,20.500
2023-01-19T02:57:51.544Z,20.500
2023-01-19T02:58:51.321Z,20.800
2023-01-19T02:59:50.992Z,21.100
2023-01-19T03:00:51.750Z,20.800
2023-01-19T03:01:52.061Z,22.500
2023-01-19T03:02:51.223Z,20.000
2023-01-19T03:03:51.035Z,20.300
2023-01-19T03:04:51.722Z,20.500
2023-01-19T03:05:51.429Z,21.400
2023-01-19T03:06:51.091Z,20.100
2023-01-19T03:07:51.703Z,21.300
2023-01-19T03:08:51.347Z,20.100
2023-01-19T03:09:51.170Z,20.800
2023-01-19T03:10:51.908Z,20.600
2023-01-19T03:11:51.644Z,21.200
2023-01-19T03:12:51.374Z,19.800
2023-01-19T03:13:51.061Z,20.100
2023-01-19T03:14:51.859Z,20.600
2023-01-19T03:15:51.616Z,20.900
2023-01-19T03:16:51.578Z,21.700
2023-01-19T03:17:51.377Z,20.700
2023-01-19T03:18:51.071Z,20.500
2023-01-19T03:19:51.768Z,20.900
2023-01-19T03:20:51.475Z,20.600
2023-01-19T03:21:51.207Z,21.300
2023-01-19T03:22:51.144Z,22.600
2023-01-19T03:23:51.860Z,21.600
2023-01-19T03:24:53.255Z,21.900
2023-01-19T03:25:50.926Z,21.400
2023-01-19T03:26:51.607Z,22.600
2023-01-19T03:27:51.287Z,22.400
2023-01-19T03:28:50.985Z,23.400
2023-01-19T03:29:51.716Z,22.500
2023-01-19T03:30:51.454Z,21.900
2023-01-19T03:31:51.647Z,22.500
2023-01-19T03:32:51.462Z,22.600
2023-01-19T03:33:51.198Z,22.300
2023-01-19T03:34:51.058Z,23.000
2023-01-19T03:35:51.642Z,22.300
2023-01-19T03:36:51.367Z,22.800
2023-01-19T03:37:51.147Z,22.800
2023-01-19T03:38:51.955Z,22.100
2023-01-19T03:39:51.680Z,23.200
2023-01-19T03:40:51.360Z,22.300
2023-01-19T03:41:51.041Z,23.300
2023-01-19T03:42:51.797Z,22.200
2023-01-19T03:43:51.480Z,22.500
2023-01-19T03:44:51.276Z,21.800
2023-01-19T03:45:51.000Z,22.100
2023-01-19T03:46:51.917Z,23.300
2023-01-19T03:47:51.595Z,22.000
2023-01-19T03:48:51.292Z,22.700
2023-01-19T03:49:51.067Z,22.600
2023-01-19T03:50:51.716Z,21.400
2023-01-19T03:51:51.552Z,23.800
2023-01-19T03:52:51.092Z,22.300
2023-01-19T03:53:51.809Z,21.900
2023-01-19T03:54:51.493Z,22.200
2023-01-19T03:55:51.191Z,21.700
2023-01-19T03:56:51.189Z,22.500
2023-01-19T03:57:50.844Z,22.500
2023-01-19T03:58:51.761Z,22.800
2023-01-19T03:59:51.375Z,22.500
2023-01-19T04:00:51.052Z,23.000
2023-01-19T04:01:51.377Z,23.300
2023-01-19T04:02:51.599Z,22.600
2023-01-19T04:03:51.541Z,23.900
2023-01-19T04:04:51.326Z,25.300
2023-01-19T04:05:50.953Z,24.500
2023-01-19T04:06:51.676Z,24.900
2023-01-19T04:07:51.461Z,24.400
2023-01-19T04:08:51.327Z,24.900
2023-01-19T04:09:53.159Z,26.000
2023-01-19T04:10:51.899Z,26.000
2023-01-19T04:11:51.642Z,26.500
2023-01-19T04:12:51.318Z,25.800
2023-01-19T04:13:51.160Z,26.600
2023-01-19T04:14:51.853Z,25.600
2023-01-19T04:15:52.761Z,25.600
2023-01-19T04:16:58.230Z,27.000
2023-01-19T04:17:55.445Z,26.300
2023-01-19T04:18:51.171Z,25.800
2023-01-19T04:19:50.876Z,26.000
2023-01-19T04:20:51.769Z,25.700
2023-01-19T04:21:51.440Z,26.400
2023-01-19T04:22:51.112Z,26.100
2023-01-19T04:23:51.826Z,26.100
2023-01-19T04:24:51.456Z,26.900
2023-01-19T04:25:53.444Z,25.600
2023-01-19T04:26:51.114Z,26.100
2023-01-19T04:27:51.775Z,25.100
2023-01-19T04:28:51.383Z,26.100
2023-01-19T04:29:51.040Z,26.100
2023-01-19T04:30:51.205Z,24.300
2023-01-19T04:31:51.288Z,25.700
2023-01-19T04:32:51.184Z,25.000
2023-01-19T04:34:51.577Z,26.100
2023-01-19T04:35:52.841Z,25.300
2023-01-19T04:36:50.839Z,25.500
2023-01-19T04:37:51.695Z,24.900
2023-01-19T04:38:51.649Z,24.400
2023-01-19T04:39:51.435Z,23.800
2023-01-19T04:40:51.098Z,23.000
2023-01-19T04:41:51.822Z,22.800
2023-01-19T04:42:51.524Z,23.500
2023-01-19T04:43:51.225Z,22.700
2023-01-19T04:44:51.005Z,24.000
2023-01-19T04:45:51.684Z,23.300
2023-01-19T04:46:51.470Z,23.700
2023-01-19T04:47:51.221Z,23.200
2023-01-19T04:48:50.948Z,24.400
2023-01-19T04:49:51.569Z,23.500
2023-01-19T04:50:51.428Z,24.000
2023-01-19T04:51:52.180Z,22.700
2023-01-19T04:52:50.996Z,23.300
2023-01-19T04:53:51.640Z,24.000
2023-01-19T04:54:51.719Z,24.200
2023-01-19T04:55:51.455Z,24.100
2023-01-19T04:56:51.243Z,23.500
2023-01-19T04:57:50.955Z,24.100
2023-01-19T04:58:51.864Z,25.800
2023-01-19T04:59:51.544Z,22.800
2023-01-19T05:01:51.278Z,23.600
2023-01-19T05:02:51.340Z,24.600
2023-01-19T05:03:51.105Z,23.400
2023-01-19T05:04:52.167Z,23.300
2023-01-19T05:06:51.743Z,24.400
2023-01-19T05:07:51.722Z,24.300
2023-01-19T05:08:51.350Z,23.900
2023-01-19T05:09:51.066Z,24.700
2023-01-19T05:10:51.690Z,24.900
2023-01-19T05:11:51.427Z,24.500
2023-01-19T05:12:51.242Z,23.100
2023-01-19T05:13:51.513Z,24.200
2023-01-19T05:14:51.348Z,23.900
2023-01-19T05:15:51.113Z,24.100
2023-01-19T05:16:51.885Z,24.100
2023-01-19T05:17:51.757Z,25.100
2023-01-19T05:18:51.365Z,25.400
2023-01-19T05:19:51.250Z,24.700
2023-01-19T05:20:51.207Z,25.400
2023-01-19T05:21:51.068Z,24.800
2023-01-19T05:22:51.763Z,25.100
2023-01-19T05:23:51.728Z,24.500
2023-01-19T05:24:51.406Z,24.700
2023-01-19T05:25:51.190Z,25.000
2023-01-19T05:26:51.907Z,25.000
2023-01-19T05:27:51.622Z,25.200
2023-01-19T05:28:51.259Z,25.100
2023-01-19T05:29:50.933Z,24.500
2023-01-19T05:30:51.698Z,24.300
2023-01-19T05:31:54.844Z,27.000
2023-01-19T05:33:51.565Z,24.300
2023-01-19T05:34:51.278Z,25.900
2023-01-19T05:35:55.899Z,24.900
2023-01-19T05:36:51.621Z,26.000
2023-01-19T05:38:56.401Z,25.700
2023-01-19T05:39:51.082Z,24.700
2023-01-19T05:40:51.752Z,26.000
2023-01-19T05:41:51.615Z,24.800
2023-01-19T05:42:51.407Z,25.900
2023-01-19T05:43:51.087Z,24.900
2023-01-19T05:44:51.852Z,25.000
2023-01-19T05:45:51.536Z,24.800
2023-01-19T05:46:51.448Z,25.300
2023-01-19T05:47:51.380Z,25.300
2023-01-19T05:48:51.003Z,25.000
2023-01-19T05:49:51.803Z,25.500
2023-01-19T05:50:51.419Z,24.600
2023-01-19T05:51:51.106Z,24.900
2023-01-19T05:52:51.985Z,24.400
2023-01-19T05:53:51.699Z,24.800
2023-01-19T05:54:51.356Z,24.900
2023-01-19T05:55:50.987Z,25.400
2023-01-19T05:56:51.683Z,26.400
2023-01-19T05:57:51.306Z,25.200
2023-01-19T05:58:51.342Z,25.000
2023-01-19T05:59:51.046Z,25.400
2023-01-19T06:00:51.730Z,25.300
2023-01-19T06:01:55.132Z,25.400
2023-01-19T06:02:51.180Z,25.800
2023-01-19T06:03:52.299Z,26.500
2023-01-19T06:04:51.171Z,25.700
2023-01-19T06:05:50.836Z,25.500
2023-01-19T06:06:51.559Z,25.600
2023-01-19T06:07:51.303Z,25.700
2023-01-19T06:08:51.021Z,26.100
2023-01-19T06:09:51.701Z,24.600
2023-01-19T06:10:51.336Z,25.500
2023-01-19T06:11:51.079Z,25.600
2023-01-19T06:12:51.799Z,25.800
2023-01-19T06:13:51.550Z,25.600
2023-01-19T06:14:51.388Z,25.200
2023-01-19T06:15:51.092Z,25.400
2023-01-19T06:16:51.980Z,24.300
2023-01-19T06:17:51.726Z,24.700
2023-01-19T06:18:51.474Z,25.900
2023-01-19T06:19:51.139Z,24.800
2023-01-19T06:20:51.904Z,25.300
2023-01-19T06:21:51.546Z,25.200
2023-01-19T06:22:51.218Z,24.400
2023-01-19T06:23:50.822Z,24.000
2023-01-19T06:24:51.575Z,25.300
2023-01-19T06:25:51.179Z,25.500
2023-01-19T06:26:51.854Z,24.600
2023-01-19T06:27:51.533Z,25.500
2023-01-19T06:28:51.215Z,24.300
2023-01-19T06:29:50.896Z,25.000
2023-01-19T06:30:51.679Z,26.500
2023-01-19T06:31:51.629Z,25.900
2023-01-19T06:32:51.302Z,25.400
2023-01-19T06:33:50.955Z,25.700
2023-01-19T06:34:53.881Z,26.400
2023-01-19T06:35:51.829Z,25.000
2023-01-19T06:36:51.475Z,24.900
2023-01-19T06:37:51.280Z,25.400
2023-01-19T06:38:51.099Z,26.600
2023-01-19T06:39:51.824Z,25.100
2023-01-19T06:40:51.615Z,25.900
2023-01-19T06:41:51.347Z,25.900
2023-01-19T06:42:51.085Z,25.900
2023-01-19T06:43:51.759Z,25.800
2023-01-19T06:44:51.399Z,25.300
2023-01-19T06:45:51.252Z,26.400
2023-01-19T06:46:51.061Z,27.200
2023-01-19T06:47:51.952Z,27.000
2023-01-19T06:48:51.696Z,26.900
2023-01-19T06:49:51.357Z,25.700
2023-01-19T06:50:50.953Z,26.800
2023-01-19T06:51:51.903Z,25.700
2023-01-19T06:52:51.508Z,26.400
2023-01-19T06:53:51.418Z,26.300
2023-01-19T06:54:52.166Z,27.400
2023-01-19T06:55:52.358Z,26.900
2023-01-19T06:56:52.359Z,26.200
2023-01-19T06:57:51.274Z,25.900
2023-01-19T06:58:51.040Z,26.900
2023-01-19T06:59:51.761Z,27.000
2023-01-19T07:00:51.607Z,28.300
2023-01-19T07:01:51.611Z,28.500
2023-01-19T07:02:56.596Z,45.400
2023-01-19T07:03:51.902Z,31.500
2023-01-19T07:04:51.578Z,28.000
2023-01-19T07:05:51.433Z,43.700
2023-01-19T07:06:51.291Z,35.200
2023-01-19T07:07:51.036Z,30.400
2023-01-19T07:08:51.884Z,28.400
2023-01-19T07:09:53.924Z,28.200
2023-01-19T07:11:21.921Z,30.500
2023-01-19T07:13:01.498Z,30.500
2023-01-19T07:14:00.556Z,33.000
2023-01-19T07:15:00.487Z,35.300
2023-01-19T07:16:00.377Z,31.700
2023-01-19T07:17:00.628Z,28.300
2023-01-19T07:18:00.354Z,26.400
2023-01-19T07:19:00.049Z,27.400
2023-01-19T07:20:00.902Z,27.400
2023-01-19T07:21:00.632Z,27.000
2023-01-19T07:22:02.947Z,26.900
2023-01-19T07:23:00.320Z,26.600
2023-01-19T07:24:00.634Z,27.600
2023-01-19T07:25:00.451Z,26.400
2023-01-19T07:26:00.316Z,25.100
2023-01-19T07:27:00.221Z,27.500
2023-01-19T07:27:59.884Z,26.500
2023-01-19T07:29:02.748Z,27.000
2023-01-19T07:30:00.548Z,26.900
2023-01-19T07:31:00.817Z,28.100
2023-01-19T07:32:01.134Z,28.300
2023-01-19T07:33:00.997Z,27.700
2023-01-19T07:34:00.347Z,28.000
2023-01-19T07:35:00.162Z,27.200
2023-01-19T07:35:59.907Z,27.400
2023-01-19T07:37:00.656Z,27.000
2023-01-19T07:38:00.407Z,28.300
2023-01-19T07:39:00.443Z,29.600
2023-01-19T07:40:00.136Z,27.900
2023-01-19T07:40:59.933Z,27.200
2023-01-19T07:42:00.779Z,27.600
2023-01-19T07:43:00.976Z,28.000
2023-01-19T07:44:00.587Z,28.400
2023-01-19T07:45:00.372Z,27.900
2023-01-19T07:46:01.976Z,27.500
2023-01-19T07:47:00.003Z,27.300
2023-01-19T07:48:00.857Z,27.600
2023-01-19T07:50:00.545Z,27.300
2023-01-19T07:51:00.486Z,28.200
2023-01-19T07:52:00.316Z,28.100
2023-01-19T07:53:00.336Z,29.000
2023-01-19T07:54:00.662Z,28.700
2023-01-19T07:55:00.487Z,29.700
2023-01-19T07:56:00.234Z,27.900
2023-01-19T07:57:00.102Z,28.800
2023-01-19T07:58:00.807Z,29.600
2023-01-19T07:59:00.639Z,28.900
2023-01-19T08:00:00.353Z,29.000
2023-01-19T08:01:00.487Z,29.300
2023-01-19T08:02:00.891Z,30.900
2023-01-19T08:03:01.241Z,28.600
2023-01-19T08:04:00.907Z,29.100
2023-01-19T08:05:00.891Z,28.300
2023-01-19T08:06:00.684Z,27.200
2023-01-19T08:08:00.334Z,28.300
2023-01-19T08:09:00.211Z,28.800
2023-01-19T08:10:00.052Z,28.000
2023-01-19T08:11:00.855Z,27.700
2023-01-19T08:12:00.632Z,28.200
2023-01-19T08:13:00.726Z,28.400
2023-01-19T08:14:00.148Z,27.900
2023-01-19T08:15:00.837Z,28.700
2023-01-19T08:16:00.923Z,26.100
2023-01-19T08:17:00.804Z,27.000
2023-01-19T08:18:00.627Z,25.900
2023-01-19T08:19:00.430Z,26.800
2023-01-19T08:20:00.217Z,26.000
2023-01-19T08:20:59.960Z,27.100
2023-01-19T08:22:00.791Z,27.300
2023-01-19T08:23:01.081Z,28.100
2023-01-19T08:24:01.409Z,26.700
2023-01-19T08:25:00.932Z,26.300
2023-01-19T08:26:00.879Z,26.600
2023-01-19T08:27:00.943Z,26.100
2023-01-19T08:28:00.905Z,26.900
2023-01-19T08:29:00.690Z,26.700
2023-01-19T08:30:00.461Z,26.100
2023-01-19T08:31:08.050Z,25.500
2023-01-19T08:33:05.308Z,27.200
2023-01-19T08:34:05.223Z,27.100
2023-01-19T08:35:05.093Z,25.900
2023-01-19T08:36:05.952Z,26.700
2023-01-19T08:37:05.769Z,24.900
2023-01-19T08:38:08.107Z,24.700
2023-01-19T08:39:05.893Z,27.000
2023-01-19T08:40:05.651Z,26.700
2023-01-19T08:41:05.348Z,26.800
2023-01-19T08:42:05.168Z,26.000
2023-01-19T08:43:06.107Z,25.200
2023-01-19T08:44:05.054Z,26.900
2023-01-19T08:45:13.004Z,27.200
2023-01-19T08:46:05.013Z,25.700
2023-01-19T08:48:05.978Z,24.700
2023-01-19T08:49:05.789Z,24.400
2023-01-19T08:50:05.584Z,25.400
2023-01-19T08:51:05.363Z,25.900
2023-01-19T08:52:05.178Z,26.100
2023-01-19T08:53:05.027Z,26.100
2023-01-19T08:54:05.831Z,27.800
2023-01-19T08:55:05.630Z,27.500
2023-01-19T08:56:05.414Z,27.500
2023-01-19T08:57:05.226Z,26.900
2023-01-19T08:58:04.883Z,27.400
2023-01-19T08:59:15.403Z,29.500
2023-01-19T09:01:05.492Z,29.000
2023-01-19T09:02:05.955Z,28.200
2023-01-19T09:03:06.287Z,26.600
2023-01-19T09:04:05.423Z,26.600
2023-01-19T09:05:05.364Z,27.000
2023-01-19T09:06:05.100Z,25.600
2023-01-19T09:08:09.276Z,26.100
2023-01-19T09:10:05.151Z,26.900
2023-01-19T09:11:05.040Z,25.700
2023-01-19T09:12:05.873Z,26.100
2023-01-19T09:13:05.635Z,27.600
2023-01-19T09:14:05.503Z,26.100
2023-01-19T09:15:05.449Z,23.000
2023-01-19T09:16:05.315Z,23.100
2023-01-19T09:18:04.954Z,24.800
2023-01-19T09:19:05.855Z,27.300
2023-01-19T09:20:07.223Z,27.000
2023-01-19T09:21:05.121Z,26.300
2023-01-19T09:22:05.889Z,26.300
2023-01-19T09:23:05.706Z,26.800
2023-01-19T09:24:05.478Z,27.200
2023-01-19T09:25:05.294Z,27.300
2023-01-19T09:26:05.155Z,27.200
2023-01-19T09:27:07.194Z,26.700
2023-01-19T09:28:05.049Z,26.800
2023-01-19T09:29:05.832Z,27.100
2023-01-19T09:30:05.554Z,27.200
2023-01-19T09:31:05.485Z,26.300
2023-01-19T09:32:05.705Z,25.400
2023-01-19T09:33:05.454Z,24.800
2023-01-19T09:34:05.383Z,26.300
2023-01-19T09:35:05.072Z,25.700
2023-01-19T09:36:05.867Z,26.600
2023-01-19T09:37:05.638Z,27.400
2023-01-19T09:38:05.851Z,25.200
2023-01-19T09:39:05.608Z,25.800
2023-01-19T09:40:05.588Z,26.500
2023-01-19T09:41:05.756Z,25.100
2023-01-19T09:42:05.592Z,25.400
2023-01-19T09:43:05.388Z,24.000
2023-01-19T09:44:05.296Z,24.800
2023-01-19T09:45:05.040Z,24.200
2023-01-19T09:46:05.872Z,24.800
2023-01-19T09:47:05.842Z,24.600
2023-01-19T09:48:05.551Z,24.600
2023-01-19T09:49:05.305Z,24.200
2023-01-19T09:50:05.271Z,24.000
2023-01-19T09:51:06.117Z,24.000
2023-01-19T09:52:05.870Z,23.600
2023-01-19T09:53:05.719Z,24.500
2023-01-19T09:54:05.624Z,23.400
2023-01-19T09:55:05.521Z,23.700
2023-01-19T09:56:05.291Z,24.000
2023-01-19T09:57:08.406Z,23.200
2023-01-19T09:58:05.502Z,24.700
2023-01-19T09:59:05.259Z,24.300
2023-01-19T10:00:05.012Z,22.700
2023-01-19T10:01:06.225Z,22.600
2023-01-19T10:03:05.995Z,23.000
2023-01-19T10:04:05.929Z,22.200
2023-01-19T10:05:05.719Z,22.200
2023-01-19T10:06:05.479Z,21.800
2023-01-19T10:07:05.308Z,22.300
2023-01-19T10:08:05.121Z,21.900
2023-01-19T10:09:05.872Z,21.900
2023-01-19T10:10:05.653Z,21.000
2023-01-19T10:11:05.512Z,20.100
2023-01-19T10:12:10.230Z,19.200
2023-01-19T10:13:05.062Z,19.000
2023-01-19T10:14:05.791Z,18.700
2023-01-19T10:15:05.691Z,19.500
2023-01-19T10:16:05.501Z,20.700
2023-01-19T10:17:05.267Z,20.900
2023-01-19T10:18:05.087Z,21.700
2023-01-19T10:19:05.894Z,20.700
2023-01-19T10:20:05.650Z,22.100
2023-01-19T10:21:06.747Z,22.400
2023-01-19T10:22:06.030Z,27.000
2023-01-19T10:23:05.974Z,22.600
2023-01-19T10:24:05.929Z,21.000
2023-01-19T10:25:05.738Z,26.400
2023-01-19T10:26:05.800Z,21.600
2023-01-19T10:27:05.633Z,21.200
2023-01-19T10:28:05.495Z,21.800
2023-01-19T10:29:05.364Z,21.800
2023-01-19T10:30:05.294Z,20.800
2023-01-19T10:31:05.201Z,19.200
2023-01-19T10:32:05.552Z,19.600
2023-01-19T10:33:06.046Z,20.300
2023-01-19T10:34:05.999Z,19.300
2023-01-19T10:35:06.045Z,18.700
2023-01-19T10:36:05.964Z,19.100
2023-01-19T10:37:05.827Z,19.400
2023-01-19T10:38:05.765Z,18.300
2023-01-19T10:39:05.909Z,19.600
2023-01-19T10:40:10.479Z,19.000
2023-01-19T10:41:05.509Z,18.200
2023-01-19T10:42:05.564Z,18.700
2023-01-19T10:44:05.406Z,18.800
2023-01-19T10:45:05.345Z,18.300
2023-01-19T10:46:05.571Z,18.900
2023-01-19T10:47:05.431Z,17.500
2023-01-19T10:48:05.334Z,18.400
2023-01-19T10:49:05.227Z,17.200
2023-01-19T10:50:05.366Z,18.000
2023-01-19T10:51:05.225Z,17.300
2023-01-19T10:52:05.098Z,16.700
2023-01-19T10:53:06.131Z,16.900
2023-01-19T10:54:05.144Z,16.300
2023-01-19T10:55:05.033Z,17.600
2023-01-19T10:56:05.984Z,17.100
2023-01-19T10:57:05.940Z,15.300
2023-01-19T10:58:05.967Z,15.700
2023-01-19T10:59:06.005Z,14.600
2023-01-19T11:00:05.925Z,15.800
2023-01-19T11:01:06.033Z,15.700
2023-01-19T11:02:06.602Z,15.500
2023-01-19T11:03:06.144Z,15.400
2023-01-19T11:04:05.432Z,14.800
2023-01-19T11:05:06.346Z,13.800
2023-01-19T11:06:05.220Z,13.500
2023-01-19T11:07:05.052Z,14.000
2023-01-19T11:08:05.860Z,14.200
2023-01-19T11:09:05.688Z,13.500
2023-01-19T11:10:05.535Z,14.100
2023-01-19T11:11:05.545Z,13.800
2023-01-19T11:12:05.279Z,14.100
2023-01-19T11:13:05.206Z,13.400
2023-01-19T11:14:04.994Z,13.300
2023-01-19T11:15:05.744Z,13.700
2023-01-19T11:16:05.831Z,13.200
2023-01-19T11:17:06.002Z,13.500
2023-01-19T11:18:05.770Z,13.800
2023-01-19T11:19:05.588Z,13.000
2023-01-19T11:20:05.446Z,13.800
2023-01-19T11:21:05.148Z,13.500
2023-01-19T11:22:05.075Z,13.500
2023-01-19T11:23:06.046Z,13.200
2023-01-19T11:24:05.771Z,12.900
2023-01-19T11:26:05.696Z,13.600
2023-01-19T11:27:05.500Z,13.400
2023-01-19T11:28:05.221Z,13.700
2023-01-19T11:29:05.013Z,13.000
2023-01-19T11:30:05.840Z,12.200
2023-01-19T11:31:05.684Z,12.000
2023-01-19T11:32:05.792Z,13.400
2023-01-19T11:33:05.616Z,12.400
2023-01-19T11:34:07.131Z,12.000
2023-01-19T11:35:05.842Z,12.000
2023-01-19T11:36:05.045Z,11.800
2023-01-19T11:37:05.784Z,11.000
2023-01-19T11:38:05.611Z,12.300
2023-01-19T11:39:05.348Z,12.600
2023-01-19T11:40:05.102Z,13.800
2023-01-19T11:41:06.007Z,12.600
2023-01-19T11:42:05.798Z,13.400
2023-01-19T11:43:05.566Z,12.100
2023-01-19T11:44:10.358Z,12.000
2023-01-19T11:45:05.052Z,11.800
2023-01-19T11:46:05.978Z,12.200
2023-01-19T11:47:06.351Z,12.400
2023-01-19T11:48:05.158Z,11.200
2023-01-19T11:49:05.899Z,11.700
2023-01-19T11:50:05.755Z,11.600
2023-01-19T11:51:05.550Z,12.100
2023-01-19T11:52:05.716Z,11.600
2023-01-19T11:53:05.546Z,11.500
2023-01-19T11:54:05.735Z,11.300
2023-01-19T11:55:05.578Z,10.900
2023-01-19T11:57:05.208Z,11.600
2023-01-19T11:58:05.629Z,11.400
2023-01-19T11:59:05.575Z,11.100
2023-01-19T12:00:06.540Z,10.600
2023-01-19T12:02:05.304Z,11.500
2023-01-19T12:03:05.252Z,11.700
2023-01-19T12:04:06.343Z,11.000
2023-01-19T12:05:05.122Z,10.900
2023-01-19T12:06:05.860Z,10.900
2023-01-19T12:07:05.591Z,10.700
2023-01-19T12:08:06.766Z,11.200
2023-01-19T12:09:04.971Z,10.700
2023-01-19T12:10:05.990Z,10.500
2023-01-19T12:11:05.788Z,11.300
2023-01-19T12:12:05.527Z,10.300
2023-01-19T12:13:05.229Z,10.700
2023-01-19T12:14:06.553Z,10.200
2023-01-19T12:15:05.335Z,11.000
2023-01-19T12:17:05.391Z,10.200
2023-01-19T12:18:05.435Z,10.300
2023-01-19T12:19:05.433Z,10.700
2023-01-19T12:20:06.061Z,10.800
2023-01-19T12:21:05.889Z,10.200
2023-01-19T12:22:05.753Z,10.500
2023-01-19T12:23:05.555Z,11.500
2023-01-19T12:24:05.372Z,9.900
2023-01-19T12:25:05.395Z,9.800
2023-01-19T12:26:05.208Z,10.200
2023-01-19T12:27:04.971Z,10.600
2023-01-19T12:28:05.568Z,10.600
2023-01-19T12:29:05.452Z,10.700
2023-01-19T12:30:05.302Z,10.400
2023-01-19T12:31:05.320Z,10.500
2023-01-19T12:32:08.095Z,10.500
2023-01-19T12:33:05.931Z,11.100
2023-01-19T12:34:05.896Z,10.600
2023-01-19T12:35:05.682Z,10.700
2023-01-19T12:36:05.714Z,10.600
2023-01-19T12:37:05.481Z,10.500
2023-01-19T12:38:06.450Z,10.100
2023-01-19T12:39:05.305Z,11.200
2023-01-19T12:40:05.447Z,10.000
2023-01-19T12:41:05.242Z,11.000
2023-01-19T12:42:05.353Z,11.000
2023-01-19T12:43:05.211Z,11.000
2023-01-19T12:44:05.251Z,10.900
2023-01-19T12:45:05.129Z,10.700
2023-01-19T12:46:06.220Z,11.200
2023-01-19T12:47:05.086Z,10.800
2023-01-19T12:48:08.950Z,11.200
2023-01-19T12:49:05.693Z,11.000
2023-01-19T12:50:05.420Z,10.500
2023-01-19T12:51:05.132Z,10.900
2023-01-19T12:52:05.866Z,10.300
2023-01-19T12:53:05.700Z,10.100
2023-01-19T12:54:05.694Z,9.400
2023-01-19T12:55:05.717Z,9.500
2023-01-19T12:57:05.418Z,9.400